Time;durP1;ratioP1;P1;durP2;ratioP2;P2;SDS_P1;SDS_P2;PMS_P1;PMS_P2;Temp;Humidity;BMP_temperature;BMP_pressure;BME280_temperature;BME280_humidity;BME280_pressure;Samples;Min_cycle;Max_cycle;Signal;HPM_P1;HPM_P2
2023/04/11 00:02:16;;;;;;;17.80;16.00;;;;;;;6.39;100.00;92558.38;5108744;28;20263;-73
2023/04/11 00:04:41;;;;;;;17.03;15.50;;;;;;;6.51;100.00;92540.78;5107913;28;20236;-73
2023/04/11 00:07:08;;;;;;;16.63;15.03;;;;;;;6.57;100.00;92552.72;5109043;28;20213;-72
2023/04/11 00:09:33;;;;;;;17.63;15.93;;;;;;;6.32;100.00;92535.28;5109113;28;20187;-73
2023/04/11 00:12:00;;;;;;;17.70;16.20;;;;;;;6.34;99.84;92540.22;5108449;28;20646;-72
2023/04/11 00:14:27;;;;;;;16.50;15.00;;;;;;;6.25;100.00;92526.19;5108492;28;20183;-72
2023/04/11 00:16:56;;;;;;;18.13;16.43;;;;;;;6.41;100.00;92536.34;5107830;28;20188;-72
2023/04/11 00:19:27;;;;;;;17.20;15.63;;;;;;;6.18;100.00;92513.47;5109909;28;20276;-72
2023/04/11 00:21:56;;;;;;;16.73;15.10;;;;;;;6.49;100.00;92530.66;5108782;28;20191;-72
2023/04/11 00:24:21;;;;;;;16.80;15.20;;;;;;;6.48;100.00;92533.53;5108168;28;20211;-72
2023/04/11 00:26:47;;;;;;;17.60;16.00;;;;;;;6.25;100.00;92526.19;5110266;28;20184;-72
2023/04/11 00:29:12;;;;;;;17.90;16.10;;;;;;;6.26;100.00;92531.13;5109123;28;20232;-72
2023/04/11 00:31:37;;;;;;;18.43;16.63;;;;;;;6.47;100.00;92524.19;5108505;28;20356;-73
2023/04/11 00:34:03;;;;;;;16.50;15.00;;;;;;;6.44;100.00;92530.66;5110283;28;20184;-72
2023/04/11 00:36:30;;;;;;;17.23;15.50;;;;;;;6.48;100.00;92515.38;5107981;28;20214;-72
2023/04/11 00:38:57;;;;;;;17.90;16.10;;;;;;;6.41;100.00;92530.41;5109788;28;20196;-72
2023/04/11 00:41:23;;;;;;;16.77;15.17;;;;;;;6.51;99.25;92525.22;5109684;28;20243;-72
2023/04/11 00:43:48;;;;;;;17.23;15.63;;;;;;;6.57;98.21;92531.97;5108504;28;20184;-72
2023/04/11 00:46:17;;;;;;;17.20;15.53;;;;;;;6.47;98.90;92530.13;5107807;28;20234;-72
2023/04/11 00:48:43;;;;;;;16.77;15.27;;;;;;;6.46;98.89;92505.25;5108640;28;20184;-72
2023/04/11 00:51:09;;;;;;;17.10;15.33;;;;;;;6.42;97.90;92511.22;5109415;28;20219;-72
2023/04/11 00:53:36;;;;;;;16.37;14.90;;;;;;;6.54;97.96;92529.91;5110295;28;20176;-73
2023/04/11 00:56:01;;;;;;;16.30;14.80;;;;;;;6.53;97.99;92517.97;5110748;28;20211;-73
2023/04/11 00:58:27;;;;;;;17.07;15.57;;;;;;;6.75;97.51;92530.72;5112646;28;20224;-72
2023/04/11 01:00:53;;;;;;;16.20;14.70;;;;;;;6.57;98.25;92527.59;5112349;28;20242;-73
2023/04/11 01:03:20;;;;;;;16.33;14.90;;;;;;;6.65;98.30;92531.50;5113828;28;20242;-72
2023/04/11 01:05:48;;;;;;;17.33;15.83;;;;;;;6.38;99.03;92526.50;5113083;28;20211;-71
2023/04/11 01:08:15;;;;;;;17.10;15.40;;;;;;;6.48;98.93;92525.75;5114120;28;20188;-71
2023/04/11 01:10:41;;;;;;;16.07;14.57;;;;;;;6.46;99.56;92527.81;5112354;28;20240;-72
2023/04/11 01:13:08;;;;;;;17.27;15.57;;;;;;;6.52;99.91;92526.81;5111348;28;20191;-73
2023/04/11 01:15:33;;;;;;;17.23;15.70;;;;;;;6.54;99.60;92528.09;5111921;28;20212;-73
2023/04/11 01:18:00;;;;;;;17.33;15.70;;;;;;;6.60;97.84;92518.50;5112615;28;20225;-72
2023/04/11 01:20:27;;;;;;;17.63;15.87;;;;;;;6.53;97.31;92523.16;5112710;28;20807;-73
2023/04/11 01:22:56;;;;;;;15.70;14.33;;;;;;;6.56;97.77;92530.44;5113368;28;20172;-73
2023/04/11 01:25:22;;;;;;;17.63;15.97;;;;;;;6.63;97.82;92538.72;5111275;28;20212;-72
2023/04/11 01:27:48;;;;;;;16.37;14.87;;;;;;;6.46;98.49;92533.78;5111908;28;20184;-72
2023/04/11 01:30:13;;;;;;;15.80;14.40;;;;;;;6.58;97.99;92536.91;5110397;28;20295;-72
2023/04/11 01:32:39;;;;;;;17.17;15.47;;;;;;;6.51;97.78;92520.03;5111410;28;20192;-73
2023/04/11 01:35:06;;;;;;;16.07;14.57;;;;;;;6.45;98.04;92513.28;5111568;28;20228;-72
2023/04/11 01:37:31;;;;;;;18.23;15.33;;;;;;;6.43;98.59;92534.28;5113685;28;20207;-72
2023/04/11 01:39:57;;;;;;;16.03;14.63;;;;;;;6.44;98.93;92527.28;5111924;28;20280;-73
2023/04/11 01:42:23;;;;;;;17.30;15.70;;;;;;;6.54;99.48;92529.91;5112205;28;20192;-73
2023/04/11 01:44:53;;;;;;;16.60;14.93;;;;;;;6.29;98.89;92522.03;5110702;28;20709;-72
2023/04/11 01:47:18;;;;;;;17.63;15.93;;;;;;;6.32;98.47;92513.75;5111145;28;20184;-72
2023/04/11 01:49:44;;;;;;;16.97;15.23;;;;;;;6.43;99.45;92513.53;5112752;28;20301;-73
2023/04/11 01:52:09;;;;;;;17.50;16.00;;;;;;;6.32;99.55;92527.50;5110715;28;20191;-72
2023/04/11 01:54:34;;;;;;;17.57;15.90;;;;;;;6.23;99.73;92517.88;5112007;28;20180;-72
2023/04/11 01:57:00;;;;;;;15.80;13.90;;;;;;;6.30;99.77;92515.84;5115687;28;20254;-73
2023/04/11 01:59:26;;;;;;;18.43;16.53;;;;;;;6.19;100.00;92491.72;5113032;28;20224;-73
2023/04/11 02:01:51;;;;;;;18.37;16.60;;;;;;;6.20;100.00;92495.06;5112787;28;20212;-73
2023/04/11 02:04:17;;;;;;;19.30;17.50;;;;;;;6.18;99.86;92491.94;5111665;28;20241;-73
2023/04/11 02:06:42;;;;;;;22.50;16.77;;;;;;;6.27;100.00;92508.56;5112727;28;20223;-72
2023/04/11 02:09:08;;;;;;;18.10;16.33;;;;;;;6.14;100.00;92491.69;5112385;28;20256;-72
2023/04/11 02:11:33;;;;;;;16.40;14.93;;;;;;;6.37;99.08;92506.00;5111792;28;20241;-72
2023/04/11 02:14:01;;;;;;;17.83;16.03;;;;;;;5.89;99.25;92457.91;5110683;28;20188;-72
2023/04/11 02:16:28;;;;;;;16.70;15.20;;;;;;;6.25;99.14;92500.28;5111414;28;20227;-73
2023/04/11 02:18:54;;;;;;;19.90;16.13;;;;;;;6.20;98.94;92502.84;5111890;28;20274;-72
2023/04/11 02:21:20;;;;;;;17.93;16.33;;;;;;;6.21;98.52;92507.00;5110947;28;20230;-72
2023/04/11 02:23:45;;;;;;;16.63;15.00;;;;;;;6.30;98.52;92505.47;5111021;28;20188;-72
2023/04/11 02:26:11;;;;;;;18.60;16.63;;;;;;;6.44;98.18;92509.16;5111886;28;20220;-71
2023/04/11 02:28:36;;;;;;;17.97;16.27;;;;;;;6.47;98.37;92499.03;5112390;28;20188;-72
2023/04/11 02:31:02;;;;;;;18.97;17.10;;;;;;;6.32;98.30;92503.38;5110414;28;21620;-72
2023/04/11 02:33:27;;;;;;;18.07;16.13;;;;;;;6.18;98.27;92494.53;5110863;28;20188;-72
2023/04/11 02:35:53;;;;;;;18.97;17.13;;;;;;;6.19;98.48;92501.28;5109262;28;20211;-72
2023/04/11 02:38:19;;;;;;;18.13;16.33;;;;;;;6.39;98.70;92512.50;5110973;28;20230;-72
2023/04/11 02:40:44;;;;;;;18.93;17.00;;;;;;;6.26;98.45;92507.00;5110798;28;20222;-73
2023/04/11 02:43:10;;;;;;;18.80;16.80;;;;;;;6.19;98.85;92502.06;5110760;28;20184;-73
2023/04/11 02:45:35;;;;;;;18.33;16.43;;;;;;;6.05;99.39;92492.44;5110735;28;20224;-73
2023/04/11 02:48:00;;;;;;;20.10;18.00;;;;;;;6.04;99.82;92508.97;5112175;28;20185;-72
2023/04/11 02:50:26;;;;;;;20.00;17.00;;;;;;;6.10;99.11;92513.19;5109915;28;20324;-73
2023/04/11 02:52:52;;;;;;;20.17;17.70;;;;;;;5.96;99.38;92483.59;5110962;28;20271;-72
2023/04/11 02:55:18;;;;;;;21.07;17.80;;;;;;;6.17;98.50;92503.34;5110485;28;20235;-71
2023/04/11 02:57:43;;;;;;;20.50;16.80;;;;;;;5.99;98.30;92496.03;5110980;28;20245;-72
2023/04/11 03:00:09;;;;;;;20.43;18.40;;;;;;;5.99;97.66;92486.44;5110591;28;20239;-73
2023/04/11 03:02:35;;;;;;;20.17;16.93;;;;;;;6.02;97.82;92472.97;5110611;28;20207;-71
2023/04/11 03:05:02;;;;;;;20.33;18.03;;;;;;;6.03;97.25;92477.13;5110873;28;20235;-73
2023/04/11 03:07:31;;;;;;;24.67;17.47;;;;;;;6.11;97.32;92481.03;5110957;28;20182;-72
2023/04/11 03:09:56;;;;;;;19.43;17.27;;;;;;;6.05;96.33;92489.84;5110634;28;20219;-72
2023/04/11 03:12:21;;;;;;;17.50;15.67;;;;;;;6.08;96.44;92494.50;5110500;28;20223;-72
2023/04/11 03:14:47;;;;;;;18.67;16.90;;;;;;;6.16;95.52;92494.03;5109939;28;20240;-70
2023/04/11 03:17:12;;;;;;;19.57;17.57;;;;;;;6.19;95.37;92496.09;5110088;28;20208;-72
2023/04/11 03:19:38;;;;;;;19.90;16.43;;;;;;;6.22;95.49;92490.41;5108447;28;20235;-73
2023/04/11 03:22:04;;;;;;;19.53;17.50;;;;;;;6.19;95.30;92496.91;5111462;28;20196;-72
2023/04/11 03:24:31;;;;;;;20.43;17.97;;;;;;;6.25;96.22;92495.09;5108757;28;20198;-72
2023/04/11 03:26:57;;;;;;;20.17;18.17;;;;;;;5.76;95.61;92429.84;5110750;28;20176;-72
2023/04/11 03:29:23;;;;;;;19.43;17.33;;;;;;;6.14;95.93;92489.09;5110661;28;20191;-72
2023/04/11 03:31:48;;;;;;;20.93;18.10;;;;;;;6.07;95.49;92469.63;5111174;28;20180;-72
2023/04/11 03:34:13;;;;;;;19.80;17.07;;;;;;;6.16;94.67;92483.66;5110524;28;20180;-72
2023/04/11 03:36:39;;;;;;;18.37;16.40;;;;;;;6.18;95.68;92484.16;5109633;28;20203;-72
2023/04/11 03:39:04;;;;;;;22.13;17.97;;;;;;;6.05;95.88;92475.06;5111068;28;20241;-72
2023/04/11 03:41:30;;;;;;;19.47;17.47;;;;;;;6.08;95.54;92489.31;5108828;28;20242;-72
2023/04/11 03:43:55;;;;;;;19.63;16.90;;;;;;;6.17;96.62;92492.97;5111095;28;20188;-72
2023/04/11 03:46:21;;;;;;;19.77;17.67;;;;;;;6.01;95.05;92468.03;5109987;28;20224;-73
2023/04/11 03:48:46;;;;;;;22.53;17.63;;;;;;;5.97;97.04;92487.72;5110677;28;20199;-72
2023/04/11 03:51:12;;;;;;;19.90;17.63;;;;;;;6.02;97.34;92492.94;5109563;28;20216;-73
2023/04/11 03:53:37;;;;;;;20.67;18.13;;;;;;;6.00;97.77;92500.16;5109196;28;20184;-73
2023/04/11 03:56:03;;;;;;;21.27;19.00;;;;;;;5.96;97.04;92494.72;5110581;28;20216;-72
2023/04/11 03:58:28;;;;;;;20.17;17.07;;;;;;;5.85;98.01;92495.69;5110835;28;20191;-72
2023/04/11 04:00:54;;;;;;;21.33;18.73;;;;;;;6.09;97.42;92496.84;5109751;28;20258;-73
2023/04/11 04:03:20;;;;;;;22.53;18.40;;;;;;;6.01;97.16;92504.31;5110157;28;20256;-72
2023/04/11 04:05:45;;;;;;;22.10;19.37;;;;;;;5.47;96.76;92427.91;5110860;28;20216;-72
2023/04/11 04:08:12;;;;;;;19.50;17.43;;;;;;;5.95;97.14;92494.97;5109926;28;20174;-72
2023/04/11 04:10:37;;;;;;;21.33;17.93;;;;;;;6.02;96.76;92500.72;5109976;28;20227;-72
2023/04/11 04:13:03;;;;;;;21.30;18.37;;;;;;;6.05;96.42;92487.25;5111138;28;20164;-72
2023/04/11 04:15:28;;;;;;;21.27;19.07;;;;;;;5.88;96.07;92487.41;5108979;28;20240;-73
2023/04/11 04:17:53;;;;;;;21.13;18.90;;;;;;;5.65;97.59;92464.50;5109905;28;20202;-73
2023/04/11 04:20:19;;;;;;;23.90;19.20;;;;;;;5.86;96.43;92493.91;5108936;28;20231;-73
2023/04/11 04:22:47;;;;;;;21.63;18.47;;;;;;;5.96;98.16;92476.56;5108611;28;20252;-72
2023/04/11 04:25:14;;;;;;;21.07;18.20;;;;;;;6.21;96.87;92494.81;5109947;28;20220;-70
2023/04/11 04:27:43;;;;;;;22.90;19.17;;;;;;;6.29;99.39;92493.53;5104440;28;20192;-69
2023/04/11 04:30:14;;;;;;;20.57;17.63;;;;;;;6.29;97.04;92483.94;5108005;28;20231;-70
2023/04/11 04:32:46;;;;;;;21.67;19.00;;;;;;;6.43;96.97;92492.81;5107669;28;20211;-69
2023/04/11 04:35:15;;;;;;;21.80;17.63;;;;;;;6.10;94.45;92479.50;5106748;28;20236;-69
2023/04/11 04:37:44;;;;;;;19.93;17.83;;;;;;;6.22;95.71;92482.63;5108286;28;20204;-69
2023/04/11 04:40:14;;;;;;;21.43;18.43;;;;;;;6.09;94.88;92486.47;5107262;28;20269;-74
2023/04/11 04:42:40;;;;;;;21.93;18.80;;;;;;;6.32;96.57;92483.44;5108963;28;20207;-68
2023/04/11 04:45:07;;;;;;;22.90;19.30;;;;;;;5.90;94.10;92474.25;5109116;28;21147;-71
2023/04/11 04:47:35;;;;;;;26.93;19.17;;;;;;;6.17;94.05;92487.81;5108941;28;20217;-68
2023/04/11 04:50:01;;;;;;;26.73;21.13;;;;;;;6.04;94.55;92478.69;5107683;28;20228;-71
2023/04/11 04:52:28;;;;;;;35.37;24.80;;;;;;;6.04;94.10;92473.50;5109041;28;20222;-70
2023/04/11 04:54:57;;;;;;;27.77;20.87;;;;;;;5.90;94.62;92463.88;5105265;28;20226;-70
2023/04/11 04:57:27;;;;;;;29.93;22.77;;;;;;;6.10;94.28;92476.91;5108512;28;20210;-67
2023/04/11 04:59:53;;;;;;;24.47;20.23;;;;;;;6.09;94.47;92485.69;5107253;28;21025;-67
2023/04/11 05:02:18;;;;;;;26.87;21.00;;;;;;;5.79;94.20;92470.00;5109621;28;20224;-69
2023/04/11 05:04:44;;;;;;;24.57;20.97;;;;;;;5.94;94.22;92468.28;5106707;28;20222;-69
2023/04/11 05:07:12;;;;;;;21.80;19.00;;;;;;;6.08;93.46;92484.16;5109331;28;20205;-71
2023/04/11 05:09:38;;;;;;;21.97;19.70;;;;;;;6.10;93.12;92476.91;5107520;28;20183;-70
2023/04/11 05:12:03;;;;;;;22.80;19.63;;;;;;;5.91;93.51;92488.75;5108238;28;20184;-71
2023/04/11 05:14:29;;;;;;;22.07;18.80;;;;;;;6.06;93.64;92476.63;5107174;28;20188;-71
2023/04/11 05:16:54;;;;;;;24.43;20.33;;;;;;;6.19;94.09;92475.38;5106830;28;20184;-71
2023/04/11 05:19:19;;;;;;;23.03;20.17;;;;;;;6.06;92.27;92471.44;5109452;28;20204;-72
2023/04/11 05:21:45;;;;;;;21.07;18.87;;;;;;;6.20;92.18;92476.91;5107033;28;20191;-71
2023/04/11 05:24:10;;;;;;;22.17;19.87;;;;;;;6.25;92.05;92487.31;5108301;28;20956;-70
2023/04/11 05:26:36;;;;;;;23.00;20.67;;;;;;;6.38;91.35;92482.41;5107149;28;20240;-72
2023/04/11 05:29:01;;;;;;;20.70;18.47;;;;;;;6.16;91.51;92471.47;5108284;28;20255;-71
2023/04/11 05:31:27;;;;;;;21.93;19.60;;;;;;;6.07;91.59;92477.41;5105855;28;20243;-70
2023/04/11 05:33:53;;;;;;;19.67;17.57;;;;;;;6.59;90.36;92475.47;5108954;28;20192;-71
2023/04/11 05:36:19;;;;;;;22.00;17.57;;;;;;;6.40;90.49;92474.38;5107788;28;20215;-71
2023/04/11 05:38:45;;;;;;;19.67;17.63;;;;;;;6.27;91.42;92472.28;5110105;28;20214;-70
2023/04/11 05:41:11;;;;;;;23.07;17.87;;;;;;;6.57;91.16;92464.56;5107715;28;20224;-71
2023/04/11 05:43:37;;;;;;;18.90;16.90;;;;;;;6.40;91.20;92469.19;5110804;28;20195;-71
2023/04/11 05:46:03;;;;;;;22.13;18.13;;;;;;;6.50;90.05;92466.63;5110767;28;20212;-71
2023/04/11 05:48:29;;;;;;;18.93;17.20;;;;;;;6.58;88.66;92472.06;5111613;28;20180;-72
2023/04/11 05:50:56;;;;;;;18.53;16.77;;;;;;;6.69;88.66;92446.94;5111974;28;20215;-68
2023/04/11 05:53:21;;;;;;;23.60;18.63;;;;;;;7.08;87.33;92479.13;5113622;28;20191;-68
2023/04/11 05:55:47;;;;;;;19.50;17.50;;;;;;;7.10;88.32;92463.28;5112968;28;20310;-67
2023/04/11 05:58:12;;;;;;;23.53;20.27;;;;;;;7.31;86.56;92470.03;5111698;28;20239;-71
2023/04/11 06:00:38;;;;;;;21.17;18.13;;;;;;;7.92;97.33;92464.41;5111086;28;20302;-72
2023/04/11 06:03:04;;;;;;;20.23;18.23;;;;;;;7.64;84.54;92466.84;5111546;28;20192;-74
2023/04/11 06:05:31;;;;;;;19.10;16.60;;;;;;;7.82;83.02;92417.69;5110866;28;20220;-75
2023/04/11 06:08:00;;;;;;;17.97;16.17;;;;;;;7.39;85.01;92433.16;5113386;28;20216;-75
2023/04/11 06:10:27;;;;;;;18.63;16.73;;;;;;;7.73;84.65;92468.66;5110982;28;20228;-75
2023/04/11 06:12:52;;;;;;;19.53;17.57;;;;;;;7.25;85.05;92448.50;5113336;28;20179;-74
2023/04/11 06:15:18;;;;;;;18.87;17.00;;;;;;;7.66;87.51;92449.94;5111140;28;20218;-75
2023/04/11 06:17:44;;;;;;;17.93;16.07;;;;;;;7.67;84.55;92455.94;5112815;28;20227;-75
2023/04/11 06:20:10;;;;;;;19.90;18.00;;;;;;;7.26;85.22;92457.84;5110953;28;20220;-74
2023/04/11 06:22:36;;;;;;;18.03;16.43;;;;;;;7.65;83.87;92458.00;5111932;28;20168;-74
2023/04/11 06:25:01;;;;;;;18.47;16.63;;;;;;;7.15;85.07;92432.91;5113236;28;20224;-74
2023/04/11 06:27:27;;;;;;;18.57;16.60;;;;;;;7.69;84.58;92454.63;5111960;28;20225;-74
2023/04/11 06:29:52;;;;;;;18.87;17.00;;;;;;;7.68;85.23;92460.88;5110940;28;20291;-75
2023/04/11 06:32:18;;;;;;;18.00;16.30;;;;;;;8.05;81.54;92442.28;5114020;28;20187;-74
2023/04/11 06:34:44;;;;;;;17.87;16.10;;;;;;;7.92;83.54;92441.03;5111951;28;20215;-75
2023/04/11 06:37:09;;;;;;;17.93;16.17;;;;;;;7.98;82.33;92452.94;5112959;28;20184;-75
2023/04/11 06:39:35;;;;;;;17.63;15.50;;;;;;;7.79;83.61;92457.19;5113135;28;20179;-75
2023/04/11 06:42:01;;;;;;;17.40;15.80;;;;;;;8.35;81.96;92441.38;5112299;28;20268;-75
2023/04/11 06:44:27;;;;;;;19.27;17.27;;;;;;;8.15;81.40;92453.41;5109662;28;20194;-74
2023/04/11 06:46:53;;;;;;;19.40;17.73;;;;;;;8.04;83.09;92441.50;5113033;28;20192;-75
2023/04/11 06:49:19;;;;;;;19.23;16.57;;;;;;;8.25;84.13;92426.59;5111820;28;20225;-75
2023/04/11 06:51:47;;;;;;;19.40;17.40;;;;;;;8.03;81.05;92421.75;5111582;28;20169;-74
2023/04/11 06:54:13;;;;;;;18.53;15.60;;;;;;;8.54;79.86;92437.91;5110692;28;20220;-75
2023/04/11 06:56:38;;;;;;;17.03;15.33;;;;;;;8.28;81.23;92438.31;5112349;28;21128;-74
2023/04/11 06:59:04;;;;;;;20.53;18.63;;;;;;;8.24;80.26;92435.47;5111266;28;20215;-74
2023/04/11 07:01:34;;;;;;;19.87;16.67;;;;;;;8.04;81.13;92432.94;5112572;28;20219;-74
2023/04/11 07:04:00;;;;;;;17.77;16.07;;;;;;;8.26;81.12;92427.38;5112237;28;20613;-75
2023/04/11 07:06:26;;;;;;;19.77;17.07;;;;;;;7.89;81.64;92448.59;5110767;28;20231;-74
2023/04/11 07:08:52;;;;;;;18.13;16.43;;;;;;;8.02;81.57;92437.59;5110962;28;20192;-74
2023/04/11 07:11:17;;;;;;;17.27;15.53;;;;;;;8.06;82.16;92431.59;5111405;28;20235;-75
2023/04/11 07:13:43;;;;;;;17.60;15.70;;;;;;;7.97;81.88;92448.81;5111012;28;20264;-74
2023/04/11 07:16:08;;;;;;;16.53;14.93;;;;;;;8.05;81.05;92447.47;5110348;28;20238;-75
2023/04/11 07:18:34;;;;;;;16.30;14.60;;;;;;;8.19;81.57;92453.66;5111561;28;20216;-75
2023/04/11 07:20:59;;;;;;;18.93;16.10;;;;;;;8.38;81.50;92446.81;5109797;28;20231;-75
2023/04/11 07:23:24;;;;;;;16.97;15.47;;;;;;;8.59;80.21;92442.28;5110507;28;20179;-75
2023/04/11 07:25:50;;;;;;;17.47;15.70;;;;;;;8.34;80.72;92455.44;5111140;28;20237;-74
2023/04/11 07:28:15;;;;;;;16.57;15.00;;;;;;;8.50;79.57;92442.06;5110553;28;20714;-74
2023/04/11 07:30:41;;;;;;;15.57;14.13;;;;;;;8.28;80.21;92425.31;5112091;28;20231;-74
2023/04/11 07:33:06;;;;;;;15.27;13.83;;;;;;;8.45;79.55;92441.34;5109519;28;20184;-75
2023/04/11 07:35:36;;;;;;;16.60;15.20;;;;;;;8.53;80.22;92438.94;5109482;28;20235;-75
2023/04/11 07:38:02;;;;;;;16.40;14.93;;;;;;;8.37;80.21;92439.28;5109430;28;20836;-75
2023/04/11 07:40:27;;;;;;;16.37;14.87;;;;;;;8.77;78.80;92413.78;5109688;28;20238;-74
2023/04/11 07:42:53;;;;;;;15.77;14.47;;;;;;;8.61;77.28;92429.75;5110469;28;20184;-74
2023/04/11 07:45:19;;;;;;;16.80;15.27;;;;;;;8.58;79.27;92423.28;5115071;28;20228;-75
2023/04/11 07:47:44;;;;;;;15.23;13.80;;;;;;;8.58;77.89;92404.28;5110249;28;20248;-74
2023/04/11 07:50:10;;;;;;;14.63;13.33;;;;;;;8.70;76.51;92415.16;5111301;28;20244;-74
2023/04/11 07:52:35;;;;;;;15.73;14.33;;;;;;;8.62;76.99;92405.31;5110208;28;20221;-75
2023/04/11 07:55:01;;;;;;;15.80;14.37;;;;;;;8.92;75.56;92431.13;5110172;28;20224;-75
2023/04/11 07:57:28;;;;;;;15.83;14.43;;;;;;;8.80;77.00;92423.66;5110564;28;20232;-75
2023/04/11 07:59:53;;;;;;;15.07;13.53;;;;;;;8.75;77.04;92404.69;5111141;28;20234;-75
2023/04/11 08:02:19;;;;;;;15.10;13.70;;;;;;;8.96;76.52;92404.28;5109925;28;20212;-75
2023/04/11 08:04:44;;;;;;;14.03;12.93;;;;;;;9.55;76.53;92424.81;5109951;28;20223;-75
2023/04/11 08:07:10;;;;;;;14.67;13.40;;;;;;;9.24;77.58;92426.16;5110584;28;20184;-75
2023/04/11 08:09:35;;;;;;;17.63;15.93;;;;;;;9.38;78.06;92408.84;5110142;28;20906;-75
2023/04/11 08:12:01;;;;;;;15.70;14.30;;;;;;;9.28;76.85;92411.53;5110328;28;20195;-74
2023/04/11 08:14:26;;;;;;;16.43;14.77;;;;;;;9.90;76.59;92406.19;5109844;28;20172;-75
2023/04/11 08:16:52;;;;;;;14.80;13.50;;;;;;;10.21;73.05;92412.59;5109658;28;20192;-75
2023/04/11 08:19:18;;;;;;;14.50;13.33;;;;;;;10.23;74.07;92410.50;5108673;28;20372;-75
2023/04/11 08:21:43;;;;;;;16.80;15.40;;;;;;;10.19;73.82;92403.50;5110027;28;20220;-75
2023/04/11 08:24:09;;;;;;;16.33;14.80;;;;;;;9.68;76.01;92392.91;5110412;28;20192;-75
2023/04/11 08:26:34;;;;;;;16.07;14.60;;;;;;;9.79;74.26;92376.06;5110612;28;20219;-75
2023/04/11 08:29:00;;;;;;;15.03;13.77;;;;;;;9.92;72.36;92403.28;5111460;28;20185;-75
2023/04/11 08:31:27;;;;;;;15.17;13.90;;;;;;;9.63;73.61;92388.50;5108277;28;20230;-75
2023/04/11 08:33:52;;;;;;;14.60;13.17;;;;;;;9.95;71.75;92400.13;5109901;28;20181;-75
2023/04/11 08:36:18;;;;;;;14.93;13.83;;;;;;;9.52;72.29;92394.09;5108677;28;20368;-73
2023/04/11 08:38:43;;;;;;;13.17;12.07;;;;;;;9.53;70.76;92391.22;5110027;28;20203;-75
2023/04/11 08:41:10;;;;;;;13.83;12.63;;;;;;;9.91;69.83;92392.09;5109041;28;20275;-75
2023/04/11 08:43:37;;;;;;;13.73;12.47;;;;;;;9.43;70.81;92349.63;5109784;28;20176;-75
2023/04/11 08:46:03;;;;;;;13.93;12.77;;;;;;;9.60;72.04;92385.69;5108557;28;20216;-75
2023/04/11 08:48:29;;;;;;;15.67;14.17;;;;;;;9.55;72.16;92398.75;5109452;28;20177;-75
2023/04/11 08:50:54;;;;;;;15.37;13.90;;;;;;;9.51;72.35;92387.31;5109059;28;20215;-75
2023/04/11 08:53:23;;;;;;;13.73;12.63;;;;;;;9.54;71.68;92332.84;5110202;28;20191;-75
2023/04/11 08:55:49;;;;;;;14.50;13.27;;;;;;;9.85;70.98;92377.56;5109242;28;20212;-74
2023/04/11 08:58:15;;;;;;;14.57;13.10;;;;;;;9.83;71.71;92377.06;5110757;28;20230;-75
2023/04/11 09:00:41;;;;;;;14.00;12.80;;;;;;;10.02;70.67;92367.47;5109826;28;20278;-75
2023/04/11 09:03:08;;;;;;;14.63;13.37;;;;;;;10.16;71.07;92378.00;5108829;28;20185;-75
2023/04/11 09:05:39;;;;;;;14.10;13.03;;;;;;;10.02;70.04;92357.03;5108165;28;20230;-76
2023/04/11 09:08:06;;;;;;;14.60;13.30;;;;;;;10.54;70.37;92369.88;5107702;28;20186;-73
2023/04/11 09:10:33;;;;;;;14.83;13.43;;;;;;;10.08;69.90;92355.16;5109629;28;20220;-74
2023/04/11 09:12:58;;;;;;;13.53;12.33;;;;;;;10.40;69.52;92363.81;5110953;28;20248;-75
2023/04/11 09:15:29;;;;;;;14.27;12.97;;;;;;;10.59;69.02;92366.41;5107955;28;20234;-75
2023/04/11 09:17:56;;;;;;;13.53;12.37;;;;;;;10.07;68.34;92315.25;5114739;28;20206;-75
2023/04/11 09:20:28;;;;;;;14.27;13.07;;;;;;;11.10;68.31;92362.72;5112629;28;20228;-75
2023/04/11 09:22:53;;;;;;;14.67;13.47;;;;;;;11.32;66.11;92360.25;5113517;28;20190;-75
2023/04/11 09:25:21;;;;;;;14.63;13.13;;;;;;;10.72;67.36;92353.41;5113163;28;20229;-74
2023/04/11 09:27:47;;;;;;;14.63;13.07;;;;;;;10.79;68.37;92335.56;5114553;28;20198;-73
2023/04/11 09:30:25;;;;;;;14.40;13.23;;;;;;;11.45;66.77;92347.47;5112314;28;20223;-75
2023/04/11 09:32:52;;;;;;;14.97;13.67;;;;;;;11.41;64.68;92339.44;5114888;28;20196;-75
2023/04/11 09:35:19;;;;;;;14.73;13.43;;;;;;;11.45;65.44;92347.47;5115601;28;20330;-74
2023/04/11 09:37:48;;;;;;;14.63;13.30;;;;;;;11.55;64.50;92342.06;5114038;28;20235;-75
2023/04/11 09:40:15;;;;;;;14.47;13.27;;;;;;;11.21;64.56;92340.59;5112090;28;22058;-74
2023/04/11 09:42:42;;;;;;;13.70;12.43;;;;;;;11.25;64.41;92332.94;5113781;28;20181;-75
2023/04/11 09:45:17;;;;;;;14.23;13.03;;;;;;;10.86;66.56;92322.13;5112693;28;20223;-74
2023/04/11 09:47:44;;;;;;;14.93;13.70;;;;;;;10.97;64.62;92329.50;5113098;28;20209;-75
2023/04/11 09:50:10;;;;;;;14.13;13.03;;;;;;;10.90;64.24;92300.38;5111897;28;20226;-75
2023/04/11 09:52:38;;;;;;;15.17;13.87;;;;;;;11.12;61.99;92321.41;5112702;28;20197;-75
2023/04/11 09:55:06;;;;;;;14.07;13.03;;;;;;;10.88;63.88;92312.94;5112558;28;20232;-75
2023/04/11 09:57:33;;;;;;;14.63;13.33;;;;;;;11.19;65.17;92307.97;5113759;28;20211;-74
2023/04/11 10:00:05;;;;;;;13.73;12.53;;;;;;;10.91;64.65;92286.25;5112875;28;20232;-74
2023/04/11 10:02:30;;;;;;;14.80;13.53;;;;;;;10.80;66.10;92300.53;5112622;28;20243;-75
2023/04/11 10:04:58;;;;;;;14.60;13.43;;;;;;;10.64;66.56;92301.09;5112364;28;20931;-75
2023/04/11 10:07:24;;;;;;;14.70;13.53;;;;;;;10.03;67.03;92222.97;5112685;28;20192;-75
2023/04/11 10:09:50;;;;;;;15.10;13.60;;;;;;;10.45;65.92;92282.06;5112839;28;20223;-74
2023/04/11 10:12:32;;;;;;;15.53;14.20;;;;;;;10.60;65.85;92290.44;5112638;28;20241;-74
2023/04/11 10:15:07;;;;;;;13.90;12.70;;;;;;;10.84;64.36;92291.09;5111779;28;20215;-74
2023/04/11 10:17:32;;;;;;;15.03;13.80;;;;;;;10.88;65.08;92292.06;5113562;28;20266;-75
2023/04/11 10:19:58;;;;;;;15.40;14.03;;;;;;;10.90;62.43;92247.38;5112233;28;20224;-75
2023/04/11 10:22:42;;;;;;;15.37;13.97;;;;;;;11.01;62.84;92278.25;5113596;28;20190;-74
2023/04/11 10:25:20;;;;;;;14.97;13.67;;;;;;;11.49;62.93;92288.34;5110852;28;20307;-74
2023/04/11 10:27:48;;;;;;;14.47;13.13;;;;;;;11.56;61.05;92278.25;5113598;28;20197;-75
2023/04/11 10:30:14;;;;;;;15.23;13.93;;;;;;;11.12;62.40;92260.56;5110873;28;20263;-75
2023/04/11 10:32:40;;;;;;;15.30;13.97;;;;;;;11.38;61.77;92261.59;5111579;28;20184;-75
2023/04/11 10:35:15;;;;;;;14.00;12.93;;;;;;;11.47;62.02;92261.72;5111376;28;20240;-74
2023/04/11 10:37:40;;;;;;;13.90;12.70;;;;;;;11.82;61.42;92237.47;5111783;28;20203;-75
2023/04/11 10:40:10;;;;;;;15.70;14.30;;;;;;;11.88;59.60;92242.28;5110995;28;20234;-74
2023/04/11 10:42:40;;;;;;;14.13;12.73;;;;;;;11.70;57.28;92252.91;5110778;28;20181;-75
2023/04/11 10:45:28;;;;;;;13.93;12.73;;;;;;;11.19;61.09;92248.66;5111867;28;20247;-74
2023/04/11 10:48:06;;;;;;;14.77;13.57;;;;;;;11.69;60.03;92244.28;5112330;28;20217;-75
2023/04/11 10:50:40;;;;;;;13.63;12.53;;;;;;;11.77;59.13;92242.78;5110788;28;20212;-75
2023/04/11 10:53:08;;;;;;;15.57;14.27;;;;;;;11.72;58.21;92237.69;5110810;28;20201;-75
2023/04/11 10:55:49;;;;;;;17.00;13.97;;;;;;;11.54;60.65;92241.94;5111084;28;20217;-74
2023/04/11 10:58:18;;;;;;;15.37;14.07;;;;;;;11.51;60.94;92233.91;5113365;28;20233;-76
2023/04/11 11:00:49;;;;;;;14.40;13.20;;;;;;;11.63;59.93;92235.00;5111215;28;20418;-75
2023/04/11 11:03:19;;;;;;;13.93;12.83;;;;;;;11.60;59.69;92219.88;5111584;28;20188;-75
2023/04/11 11:05:59;;;;;;;15.17;13.73;;;;;;;11.75;57.37;92230.03;5110033;28;20229;-76
2023/04/11 11:08:29;;;;;;;13.77;12.57;;;;;;;11.55;56.46;92233.03;5111627;28;20194;-75
2023/04/11 11:11:02;;;;;;;15.23;13.87;;;;;;;12.15;57.25;92226.53;5111100;28;20233;-75
2023/04/11 11:13:37;;;;;;;14.47;13.40;;;;;;;11.91;55.15;92220.00;5110481;28;20244;-75
2023/04/11 11:16:02;;;;;;;14.73;13.47;;;;;;;11.91;58.09;92207.69;5110428;28;20233;-75
2023/04/11 11:18:28;;;;;;;15.93;14.63;;;;;;;11.79;55.80;92193.59;5111149;28;20215;-74
2023/04/11 11:20:54;;;;;;;13.93;12.73;;;;;;;11.82;56.71;92195.63;5111434;28;20220;-74